sensor_id;sensor_type;location;lat;lon;timestamp;pressure;altitude;pressure_sealevel;temperature;humidity
80482;BME280;69797;43.864;21.410;2023-05-10T00:02:07;100257.63;;;12.19;71.28
80482;BME280;69797;43.864;21.410;2023-05-10T00:04:34;100246.34;;;12.09;71.71
80482;BME280;69797;43.864;21.410;2023-05-10T00:07:01;100254.16;;;12.24;71.35
80482;BME280;69797;43.864;21.410;2023-05-10T00:09:27;100251.41;;;12.24;71.23
80482;BME280;69797;43.864;21.410;2023-05-10T00:11:54;100237.78;;;12.17;71.22
80482;BME280;69797;43.864;21.410;2023-05-10T00:14:21;100247.38;;;12.27;71.11
80482;BME280;69797;43.864;21.410;2023-05-10T00:16:48;100254.25;;;12.36;70.99
80482;BME280;69797;43.864;21.410;2023-05-10T00:19:14;100227.66;;;12.18;71.03
80482;BME280;69797;43.864;21.410;2023-05-10T00:21:43;100248.53;;;12.19;71.44
80482;BME280;69797;43.864;21.410;2023-05-10T00:24:10;100234.00;;;12.00;71.91
80482;BME280;69797;43.864;21.410;2023-05-10T00:26:39;100243.88;;;11.83;72.33
80482;BME280;69797;43.864;21.410;2023-05-10T00:29:06;100251.78;;;11.97;72.76
80482;BME280;69797;43.864;21.410;2023-05-10T00:31:35;100225.91;;;11.87;72.71
80482;BME280;69797;43.864;21.410;2023-05-10T00:34:02;100248.78;;;11.99;72.42
80482;BME280;69797;43.864;21.410;2023-05-10T00:36:28;100217.28;;;11.83;72.80
80482;BME280;69797;43.864;21.410;2023-05-10T00:38:55;100229.53;;;11.81;72.69
80482;BME280;69797;43.864;21.410;2023-05-10T00:41:22;100219.25;;;11.76;72.73
80482;BME280;69797;43.864;21.410;2023-05-10T00:43:49;100210.75;;;11.84;72.61
80482;BME280;69797;43.864;21.410;2023-05-10T00:46:17;100221.25;;;11.87;72.60
80482;BME280;69797;43.864;21.410;2023-05-10T00:48:44;100210.28;;;11.69;72.84
80482;BME280;69797;43.864;21.410;2023-05-10T00:51:13;100221.63;;;11.72;73.29
80482;BME280;69797;43.864;21.410;2023-05-10T00:53:40;100197.31;;;11.58;73.57
80482;BME280;69797;43.864;21.410;2023-05-10T00:56:07;100222.47;;;11.73;73.95
80482;BME280;69797;43.864;21.410;2023-05-10T00:58:34;100237.19;;;11.79;73.44
80482;BME280;69797;43.864;21.410;2023-05-10T01:01:01;100200.50;;;11.55;73.59
80482;BME280;69797;43.864;21.410;2023-05-10T01:03:28;100213.78;;;11.76;73.45
80482;BME280;69797;43.864;21.410;2023-05-10T01:05:55;100204.91;;;11.74;73.83
80482;BME280;69797;43.864;21.410;2023-05-10T01:08:22;100233.38;;;11.80;73.52
80482;BME280;69797;43.864;21.410;2023-05-10T01:10:49;100208.34;;;11.69;73.70
80482;BME280;69797;43.864;21.410;2023-05-10T01:13:36;100210.97;;;11.64;74.24
80482;BME280;69797;43.864;21.410;2023-05-10T01:16:04;100240.06;;;11.65;74.33
80482;BME280;69797;43.864;21.410;2023-05-10T01:18:38;100211.19;;;11.63;75.07
80482;BME280;69797;43.864;21.410;2023-05-10T01:21:19;100243.25;;;11.62;74.59
80482;BME280;69797;43.864;21.410;2023-05-10T01:29:53;100177.50;;;11.56;74.83
80482;BME280;69797;43.864;21.410;2023-05-10T01:35:42;100197.38;;;11.69;74.87
80482;BME280;69797;43.864;21.410;2023-05-10T01:43:33;100208.34;;;11.69;74.87
80482;BME280;69797;43.864;21.410;2023-05-10T01:46:14;100206.69;;;11.68;75.11
80482;BME280;69797;43.864;21.410;2023-05-10T01:48:48;100209.38;;;11.75;74.88
80482;BME280;69797;43.864;21.410;2023-05-10T01:51:22;100206.38;;;11.58;74.86
80482;BME280;69797;43.864;21.410;2023-05-10T01:53:51;100196.94;;;11.54;75.46
80482;BME280;69797;43.864;21.410;2023-05-10T01:56:24;100194.56;;;11.58;75.99
80482;BME280;69797;43.864;21.410;2023-05-10T01:58:53;100197.97;;;11.53;76.21
80482;BME280;69797;43.864;21.410;2023-05-10T02:01:21;100173.97;;;11.48;76.81
80482;BME280;69797;43.864;21.410;2023-05-10T02:03:49;100182.44;;;11.47;77.04
80482;BME280;69797;43.864;21.410;2023-05-10T02:06:18;100192.03;;;11.38;77.84
80482;BME280;69797;43.864;21.410;2023-05-10T02:08:47;100156.50;;;11.24;77.76
80482;BME280;69797;43.864;21.410;2023-05-10T02:11:22;100170.00;;;11.26;78.21
80482;BME280;69797;43.864;21.410;2023-05-10T02:13:50;100160.19;;;11.18;78.40
80482;BME280;69797;43.864;21.410;2023-05-10T02:16:23;100140.75;;;11.20;78.95
80482;BME280;69797;43.864;21.410;2023-05-10T02:18:54;100166.59;;;11.31;78.74
80482;BME280;69797;43.864;21.410;2023-05-10T02:21:24;100173.91;;;11.18;78.62
80482;BME280;69797;43.864;21.410;2023-05-10T02:23:52;100169.94;;;11.14;79.26
80482;BME280;69797;43.864;21.410;2023-05-10T02:26:21;100178.75;;;11.16;78.99
80482;BME280;69797;43.864;21.410;2023-05-10T02:28:50;100159.69;;;11.03;79.46
80482;BME280;69797;43.864;21.410;2023-05-10T02:31:18;100178.75;;;11.16;79.56
80482;BME280;69797;43.864;21.410;2023-05-10T02:33:46;100158.59;;;11.11;79.14
80482;BME280;69797;43.864;21.410;2023-05-10T02:36:15;100166.88;;;11.22;79.31
80482;BME280;69797;43.864;21.410;2023-05-10T02:38:46;100151.19;;;11.11;79.52
80482;BME280;69797;43.864;21.410;2023-05-10T02:41:14;100166.25;;;11.20;79.51
80482;BME280;69797;43.864;21.410;2023-05-10T02:43:41;100146.16;;;11.08;79.42
80482;BME280;69797;43.864;21.410;2023-05-10T02:46:14;100158.72;;;11.16;79.47
80482;BME280;69797;43.864;21.410;2023-05-10T02:48:41;100173.13;;;11.11;79.80
80482;BME280;69797;43.864;21.410;2023-05-10T02:51:08;100138.81;;;11.02;80.25
80482;BME280;69797;43.864;21.410;2023-05-10T02:53:38;100141.56;;;11.02;79.79
80482;BME280;69797;43.864;21.410;2023-05-10T02:56:29;100161.91;;;11.13;79.90
80482;BME280;69797;43.864;21.410;2023-05-10T02:59:00;100159.41;;;11.11;80.52
80482;BME280;69797;43.864;21.410;2023-05-10T03:01:27;100167.63;;;11.11;80.43
80482;BME280;69797;43.864;21.410;2023-05-10T03:03:56;100162.38;;;11.10;80.26
80482;BME280;69797;43.864;21.410;2023-05-10T03:06:23;100153.25;;;11.16;79.65
80482;BME280;69797;43.864;21.410;2023-05-10T03:08:50;100166.00;;;11.28;80.18
80482;BME280;69797;43.864;21.410;2023-05-10T03:14:12;100156.31;;;11.26;79.83
80482;BME280;69797;43.864;21.410;2023-05-10T03:16:47;100168.94;;;11.27;80.34
80482;BME280;69797;43.864;21.410;2023-05-10T03:19:29;100168.56;;;11.23;79.87
80482;BME280;69797;43.864;21.410;2023-05-10T03:21:59;100149.66;;;11.15;80.03
80482;BME280;69797;43.864;21.410;2023-05-10T03:24:30;100138.47;;;11.17;80.22
80482;BME280;69797;43.864;21.410;2023-05-10T03:27:00;100151.13;;;11.18;80.38
80482;BME280;69797;43.864;21.410;2023-05-10T03:29:29;100148.84;;;11.15;80.00
80482;BME280;69797;43.864;21.410;2023-05-10T03:32:01;100141.88;;;11.12;80.83
80482;BME280;69797;43.864;21.410;2023-05-10T03:34:29;100112.94;;;10.98;81.13
80482;BME280;69797;43.864;21.410;2023-05-10T03:36:57;100139.59;;;11.09;81.27
80482;BME280;69797;43.864;21.410;2023-05-10T03:39:24;100135.97;;;11.15;80.80
80482;BME280;69797;43.864;21.410;2023-05-10T03:41:51;100140.94;;;11.25;80.51
80482;BME280;69797;43.864;21.410;2023-05-10T03:44:18;100152.94;;;11.42;79.24
80482;BME280;69797;43.864;21.410;2023-05-10T03:46:44;100149.19;;;11.73;78.46
80482;BME280;69797;43.864;21.410;2023-05-10T03:49:11;100127.53;;;12.02;76.43
80482;BME280;69797;43.864;21.410;2023-05-10T03:51:38;100143.09;;;12.50;74.75
80482;BME280;69797;43.864;21.410;2023-05-10T03:54:05;100150.34;;;12.56;74.13
80482;BME280;69797;43.864;21.410;2023-05-10T03:56:34;100151.81;;;12.59;74.30
80482;BME280;69797;43.864;21.410;2023-05-10T03:59:01;100152.00;;;12.34;74.26
80482;BME280;69797;43.864;21.410;2023-05-10T04:01:28;100153.13;;;12.14;75.11
80482;BME280;69797;43.864;21.410;2023-05-10T04:03:54;100136.19;;;11.87;75.78
80482;BME280;69797;43.864;21.410;2023-05-10T04:06:21;100141.03;;;11.85;76.25
80482;BME280;69797;43.864;21.410;2023-05-10T04:08:48;100137.78;;;11.58;76.79
80482;BME280;69797;43.864;21.410;2023-05-10T04:11:17;100143.28;;;11.58;76.94
80482;BME280;69797;43.864;21.410;2023-05-10T04:13:44;100157.50;;;11.67;76.93
80482;BME280;69797;43.864;21.410;2023-05-10T04:16:13;100170.53;;;11.53;77.30
80482;BME280;69797;43.864;21.410;2023-05-10T04:18:40;100147.06;;;11.39;77.51
80482;BME280;69797;43.864;21.410;2023-05-10T04:21:13;100139.78;;;11.33;77.59
80482;BME280;69797;43.864;21.410;2023-05-10T04:23:40;100159.38;;;11.36;77.36
80482;BME280;69797;43.864;21.410;2023-05-10T04:26:09;100187.88;;;11.53;77.70
80482;BME280;69797;43.864;21.410;2023-05-10T04:28:39;100171.25;;;11.48;77.69
80482;BME280;69797;43.864;21.410;2023-05-10T04:31:09;100182.44;;;11.47;77.14
80482;BME280;69797;43.864;21.410;2023-05-10T04:33:36;100153.25;;;11.34;77.42
80482;BME280;69797;43.864;21.410;2023-05-10T04:36:03;100168.94;;;11.45;77.26
80482;BME280;69797;43.864;21.410;2023-05-10T04:38:30;100176.72;;;11.48;77.20
80482;BME280;69797;43.864;21.410;2023-05-10T04:41:07;100174.59;;;11.50;77.68
80482;BME280;69797;43.864;21.410;2023-05-10T04:43:35;100170.25;;;11.43;77.36
80482;BME280;69797;43.864;21.410;2023-05-10T04:46:04;100161.09;;;11.49;77.26
80482;BME280;69797;43.864;21.410;2023-05-10T04:48:34;100175.28;;;11.64;77.05
80482;BME280;69797;43.864;21.410;2023-05-10T04:51:01;100181.91;;;11.57;76.91
80482;BME280;69797;43.864;21.410;2023-05-10T04:53:27;100158.34;;;11.49;76.86
80482;BME280;69797;43.864;21.410;2023-05-10T04:55:54;100168.81;;;11.59;76.65
80482;BME280;69797;43.864;21.410;2023-05-10T04:58:21;100172.00;;;11.56;77.04
80482;BME280;69797;43.864;21.410;2023-05-10T05:00:48;100157.00;;;11.40;76.93
80482;BME280;69797;43.864;21.410;2023-05-10T05:03:14;100179.00;;;11.51;76.97
80482;BME280;69797;43.864;21.410;2023-05-10T05:05:41;100170.16;;;11.49;76.70
80482;BME280;69797;43.864;21.410;2023-05-10T05:08:08;100188.00;;;11.59;76.85
80482;BME280;69797;43.864;21.410;2023-05-10T05:10:35;100200.50;;;11.55;76.93
80482;BME280;69797;43.864;21.410;2023-05-10T05:13:02;100195.09;;;11.48;77.09
80482;BME280;69797;43.864;21.410;2023-05-10T05:15:28;100149.22;;;11.37;76.89
80482;BME280;69797;43.864;21.410;2023-05-10T05:17:57;100168.44;;;11.55;76.81
80482;BME280;69797;43.864;21.410;2023-05-10T05:20:26;100174.81;;;11.49;76.60
80482;BME280;69797;43.864;21.410;2023-05-10T05:22:55;100201.22;;;11.50;76.98
80482;BME280;69797;43.864;21.410;2023-05-10T05:25:22;100193.56;;;11.52;77.11
80482;BME280;69797;43.864;21.410;2023-05-10T05:27:49;100200.19;;;11.44;76.54
80482;BME280;69797;43.864;21.410;2023-05-10T05:30:16;100186.94;;;11.41;76.63
80482;BME280;69797;43.864;21.410;2023-05-10T05:32:43;100212.25;;;11.43;76.82
80482;BME280;69797;43.864;21.410;2023-05-10T05:35:10;100186.94;;;11.41;76.65
80482;BME280;69797;43.864;21.410;2023-05-10T05:37:40;100195.78;;;11.43;76.71
80482;BME280;69797;43.864;21.410;2023-05-10T05:40:07;100184.25;;;11.35;77.11
80482;BME280;69797;43.864;21.410;2023-05-10T05:42:34;100205.53;;;11.58;76.68
80482;BME280;69797;43.864;21.410;2023-05-10T05:45:00;100199.13;;;11.45;76.52
80482;BME280;69797;43.864;21.410;2023-05-10T05:47:27;100208.13;;;11.52;76.64
80482;BME280;69797;43.864;21.410;2023-05-10T05:49:56;100173.66;;;11.38;76.89
80482;BME280;69797;43.864;21.410;2023-05-10T05:52:23;100189.22;;;11.44;76.63
80482;BME280;69797;43.864;21.410;2023-05-10T05:54:51;100193.81;;;11.50;76.67
80482;BME280;69797;43.864;21.410;2023-05-10T05:57:18;100195.63;;;11.57;76.88
80482;BME280;69797;43.864;21.410;2023-05-10T05:59:45;100231.28;;;11.57;76.50
80482;BME280;69797;43.864;21.410;2023-05-10T06:02:12;100214.97;;;11.43;76.73
80482;BME280;69797;43.864;21.410;2023-05-10T06:04:41;100236.03;;;11.68;76.66
80482;BME280;69797;43.864;21.410;2023-05-10T06:07:10;100217.50;;;11.63;76.04
80482;BME280;69797;43.864;21.410;2023-05-10T06:09:37;100215.31;;;11.72;76.37
80482;BME280;69797;43.864;21.410;2023-05-10T06:12:06;100222.56;;;11.85;76.92
80482;BME280;69797;43.864;21.410;2023-05-10T06:14:33;100213.88;;;11.88;75.34
80482;BME280;69797;43.864;21.410;2023-05-10T06:16:59;100218.91;;;11.91;75.03
80482;BME280;69797;43.864;21.410;2023-05-10T06:19:27;100223.25;;;11.98;75.09
80482;BME280;69797;43.864;21.410;2023-05-10T06:21:54;100188.78;;;11.84;74.97
80482;BME280;69797;43.864;21.410;2023-05-10T06:24:30;100220.53;;;12.10;74.39
80482;BME280;69797;43.864;21.410;2023-05-10T06:26:56;100215.06;;;12.10;73.46
80482;BME280;69797;43.864;21.410;2023-05-10T06:29:26;100207.19;;;12.14;74.66
80482;BME280;69797;43.864;21.410;2023-05-10T06:31:53;100239.81;;;12.40;74.18
80482;BME280;69797;43.864;21.410;2023-05-10T06:34:20;100216.19;;;12.51;76.24
80482;BME280;69797;43.864;21.410;2023-05-10T06:36:47;100247.00;;;12.95;71.95
80482;BME280;69797;43.864;21.410;2023-05-10T06:39:14;100228.47;;;12.90;71.26
80482;BME280;69797;43.864;21.410;2023-05-10T06:41:40;100237.56;;;13.14;70.51
80482;BME280;69797;43.864;21.410;2023-05-10T06:44:07;100228.63;;;13.07;70.27
80482;BME280;69797;43.864;21.410;2023-05-10T06:46:34;100224.53;;;13.21;69.84
80482;BME280;69797;43.864;21.410;2023-05-10T06:49:01;100208.22;;;13.27;69.23
80482;BME280;69797;43.864;21.410;2023-05-10T06:51:28;100237.16;;;13.41;68.83
80482;BME280;69797;43.864;21.410;2023-05-10T06:53:55;100215.16;;;13.29;69.10
80482;BME280;69797;43.864;21.410;2023-05-10T06:56:22;100228.66;;;13.31;68.59
80482;BME280;69797;43.864;21.410;2023-05-10T06:58:51;100224.59;;;13.33;68.71
80482;BME280;69797;43.864;21.410;2023-05-10T07:01:18;100215.63;;;13.26;68.28
80482;BME280;69797;43.864;21.410;2023-05-10T07:03:45;100228.06;;;13.40;68.54
80482;BME280;69797;43.864;21.410;2023-05-10T07:06:11;100249.47;;;13.62;67.93
80482;BME280;69797;43.864;21.410;2023-05-10T07:08:56;100200.84;;;13.67;66.07
80482;BME280;69797;43.864;21.410;2023-05-10T07:11:23;100237.91;;;14.00;65.52
80482;BME280;69797;43.864;21.410;2023-05-10T07:13:50;100207.53;;;13.83;65.84
80482;BME280;69797;43.864;21.410;2023-05-10T07:16:17;100246.41;;;13.99;65.44
80482;BME280;69797;43.864;21.410;2023-05-10T07:18:44;100213.63;;;13.85;65.69
80482;BME280;69797;43.864;21.410;2023-05-10T07:21:11;100202.53;;;13.80;65.90
80482;BME280;69797;43.864;21.410;2023-05-10T07:23:37;100206.09;;;13.81;65.80
80482;BME280;69797;43.864;21.410;2023-05-10T07:26:04;100227.34;;;14.09;65.65
80482;BME280;69797;43.864;21.410;2023-05-10T07:28:31;100213.44;;;14.15;65.09
80482;BME280;69797;43.864;21.410;2023-05-10T07:30:58;100273.69;;;14.12;64.27
80482;BME280;69797;43.864;21.410;2023-05-10T07:33:25;100229.69;;;13.77;65.02
80482;BME280;69797;43.864;21.410;2023-05-10T07:35:52;100181.66;;;13.44;65.67
80482;BME280;69797;43.864;21.410;2023-05-10T07:38:18;100215.09;;;13.76;65.82
80482;BME280;69797;43.864;21.410;2023-05-10T07:40:48;100247.66;;;13.67;65.36
80482;BME280;69797;43.864;21.410;2023-05-10T07:43:22;100208.09;;;13.33;66.13
80482;BME280;69797;43.864;21.410;2023-05-10T07:45:48;100205.69;;;13.25;66.61
80482;BME280;69797;43.864;21.410;2023-05-10T07:48:15;100225.53;;;13.39;66.56
80482;BME280;69797;43.864;21.410;2023-05-10T07:50:42;100243.03;;;13.33;66.73
80482;BME280;69797;43.864;21.410;2023-05-10T07:53:09;100251.28;;;13.33;66.36
80482;BME280;69797;43.864;21.410;2023-05-10T07:55:36;100219.16;;;13.03;67.03
80482;BME280;69797;43.864;21.410;2023-05-10T07:58:08;100258.09;;;13.42;66.61
80482;BME280;69797;43.864;21.410;2023-05-10T08:00:34;100210.56;;;13.23;66.13
80482;BME280;69797;43.864;21.410;2023-05-10T08:03:04;100252.94;;;13.46;65.71
80482;BME280;69797;43.864;21.410;2023-05-10T08:05:31;100247.44;;;13.34;66.10
80482;BME280;69797;43.864;21.410;2023-05-10T08:08:00;100264.38;;;13.19;66.07
80482;BME280;69797;43.864;21.410;2023-05-10T08:10:27;100243.78;;;13.10;66.35
80482;BME280;69797;43.864;21.410;2023-05-10T08:12:54;100250.56;;;13.26;66.70
80482;BME280;69797;43.864;21.410;2023-05-10T08:15:20;100216.28;;;13.21;66.09
80482;BME280;69797;43.864;21.410;2023-05-10T08:17:47;100257.94;;;13.25;65.84
80482;BME280;69797;43.864;21.410;2023-05-10T08:20:14;100241.22;;;13.27;65.81
80482;BME280;69797;43.864;21.410;2023-05-10T08:22:45;100236.63;;;13.09;65.79
80482;BME280;69797;43.864;21.410;2023-05-10T08:25:12;100278.78;;;13.33;66.15
80482;BME280;69797;43.864;21.410;2023-05-10T08:27:41;100263.00;;;13.40;65.80
80482;BME280;69797;43.864;21.410;2023-05-10T08:30:09;100286.22;;;13.44;65.31
80482;BME280;69797;43.864;21.410;2023-05-10T08:32:39;100247.06;;;13.18;65.57
80482;BME280;69797;43.864;21.410;2023-05-10T08:35:10;100280.06;;;13.18;65.74
80482;BME280;69797;43.864;21.410;2023-05-10T08:37:37;100256.41;;;13.29;65.65
80482;BME280;69797;43.864;21.410;2023-05-10T08:40:07;100242.88;;;13.39;65.07
80482;BME280;69797;43.864;21.410;2023-05-10T08:42:40;100278.44;;;13.29;64.89
80482;BME280;69797;43.864;21.410;2023-05-10T08:45:09;100244.22;;;13.37;65.23
80482;BME280;69797;43.864;21.410;2023-05-10T08:47:37;100226.09;;;13.17;65.65
80482;BME280;69797;43.864;21.410;2023-05-10T08:50:07;100244.69;;;13.46;65.30
80482;BME280;69797;43.864;21.410;2023-05-10T08:52:38;100263.69;;;13.71;64.37
80482;BME280;69797;43.864;21.410;2023-05-10T08:55:08;100263.22;;;13.74;63.71
80482;BME280;69797;43.864;21.410;2023-05-10T08:57:36;100230.22;;;13.38;64.16
80482;BME280;69797;43.864;21.410;2023-05-10T09:00:03;100260.81;;;13.54;64.82
80482;BME280;69797;43.864;21.410;2023-05-10T09:02:32;100243.84;;;13.45;65.50
80482;BME280;69797;43.864;21.410;2023-05-10T09:05:00;100267.19;;;13.54;65.26
80482;BME280;69797;43.864;21.410;2023-05-10T09:07:30;100233.19;;;13.60;64.94
80482;BME280;69797;43.864;21.410;2023-05-10T09:10:02;100253.41;;;13.78;64.68
80482;BME280;69797;43.864;21.410;2023-05-10T09:12:30;100257.97;;;13.72;64.67
80482;BME280;69797;43.864;21.410;2023-05-10T09:14:59;100260.22;;;13.63;64.89
80482;BME280;69797;43.864;21.410;2023-05-10T09:17:30;100297.47;;;13.54;64.86
80482;BME280;69797;43.864;21.410;2023-05-10T09:20:00;100257.72;;;13.27;65.63
80482;BME280;69797;43.864;21.410;2023-05-10T09:22:27;100302.00;;;13.37;65.75
80482;BME280;69797;43.864;21.410;2023-05-10T09:27:31;100249.66;;;13.13;66.53
80482;BME280;69797;43.864;21.410;2023-05-10T09:29:58;100273.47;;;13.19;65.61
80482;BME280;69797;43.864;21.410;2023-05-10T09:32:36;100277.16;;;13.13;66.44
80482;BME280;69797;43.864;21.410;2023-05-10T09:35:08;100249.63;;;12.90;66.76
80482;BME280;69797;43.864;21.410;2023-05-10T09:37:35;100239.91;;;12.76;67.42
80482;BME280;69797;43.864;21.410;2023-05-10T09:40:05;100272.91;;;12.76;67.78
80482;BME280;69797;43.864;21.410;2023-05-10T09:42:34;100251.38;;;12.72;68.41
80482;BME280;69797;43.864;21.410;2023-05-10T09:45:03;100239.91;;;12.76;67.28
80482;BME280;69797;43.864;21.410;2023-05-10T09:47:34;100241.34;;;12.78;67.25
80482;BME280;69797;43.864;21.410;2023-05-10T09:50:06;100246.88;;;12.90;67.02
80482;BME280;69797;43.864;21.410;2023-05-10T09:52:53;100269.31;;;12.75;66.99
80482;BME280;69797;43.864;21.410;2023-05-10T09:55:24;100254.84;;;12.68;67.00
80482;BME280;69797;43.864;21.410;2023-05-10T09:58:00;100254.16;;;12.96;66.75
80482;BME280;69797;43.864;21.410;2023-05-10T10:00:27;100235.28;;;12.88;66.55
80482;BME280;69797;43.864;21.410;2023-05-10T10:02:59;100266.25;;;12.95;66.25
80482;BME280;69797;43.864;21.410;2023-05-10T10:05:34;100246.53;;;12.98;65.53
80482;BME280;69797;43.864;21.410;2023-05-10T10:08:07;100231.03;;;13.15;65.46
80482;BME280;69797;43.864;21.410;2023-05-10T10:10:34;100240.03;;;13.34;64.42
80482;BME280;69797;43.864;21.410;2023-05-10T10:13:01;100269.56;;;13.39;64.47
80482;BME280;69797;43.864;21.410;2023-05-10T10:15:28;100200.66;;;13.34;64.88
80482;BME280;69797;43.864;21.410;2023-05-10T10:17:55;100250.69;;;13.54;65.64
80482;BME280;69797;43.864;21.410;2023-05-10T10:20:22;100265.00;;;13.68;64.09
80482;BME280;69797;43.864;21.410;2023-05-10T10:22:52;100225.28;;;13.64;65.72
80482;BME280;69797;43.864;21.410;2023-05-10T10:25:22;100250.06;;;13.76;63.91
80482;BME280;69797;43.864;21.410;2023-05-10T10:30:45;100223.63;;;13.63;63.92
80482;BME280;69797;43.864;21.410;2023-05-10T10:36:03;100230.28;;;13.79;67.06
80482;BME280;69797;43.864;21.410;2023-05-10T10:38:57;100246.09;;;13.83;63.39
80482;BME280;69797;43.864;21.410;2023-05-10T10:41:35;100242.03;;;13.74;63.75
80482;BME280;69797;43.864;21.410;2023-05-10T10:47:06;100233.88;;;13.91;63.29
80482;BME280;69797;43.864;21.410;2023-05-10T10:49:44;100240.78;;;14.05;62.77
80482;BME280;69797;43.864;21.410;2023-05-10T10:52:36;100234.69;;;14.32;62.33
80482;BME280;69797;43.864;21.410;2023-05-10T10:55:27;100212.28;;;14.69;60.84
80482;BME280;69797;43.864;21.410;2023-05-10T10:57:56;100221.41;;;14.57;60.88
80482;BME280;69797;43.864;21.410;2023-05-10T11:00:39;100219.44;;;14.41;61.28
80482;BME280;69797;43.864;21.410;2023-05-10T11:03:11;100218.97;;;14.32;61.71
80482;BME280;69797;43.864;21.410;2023-05-10T11:05:48;100220.69;;;14.33;61.07
80482;BME280;69797;43.864;21.410;2023-05-10T11:08:26;100190.66;;;14.49;61.69
80482;BME280;69797;43.864;21.410;2023-05-10T11:13:32;100215.94;;;14.74;60.50
80482;BME280;69797;43.864;21.410;2023-05-10T11:18:37;100175.84;;;14.67;60.68
80482;BME280;69797;43.864;21.410;2023-05-10T11:21:04;100216.94;;;14.85;60.64
80482;BME280;69797;43.864;21.410;2023-05-10T11:26:11;100192.88;;;14.80;60.12
80482;BME280;69797;43.864;21.410;2023-05-10T11:28:46;100199.81;;;14.66;60.45
80482;BME280;69797;43.864;21.410;2023-05-10T11:31:17;100211.59;;;14.61;60.83
80482;BME280;69797;43.864;21.410;2023-05-10T11:33:50;100153.75;;;14.50;61.21
80482;BME280;69797;43.864;21.410;2023-05-10T11:36:20;100185.38;;;14.76;60.93
80482;BME280;69797;43.864;21.410;2023-05-10T11:38:48;100163.88;;;14.78;61.25
80482;BME280;69797;43.864;21.410;2023-05-10T11:41:17;100205.34;;;15.00;60.87
80482;BME280;69797;43.864;21.410;2023-05-10T11:43:46;100155.28;;;14.91;61.28
80482;BME280;69797;43.864;21.410;2023-05-10T11:46:14;100179.56;;;15.28;60.39
80482;BME280;69797;43.864;21.410;2023-05-10T11:48:42;100199.75;;;15.11;59.78
80482;BME280;69797;43.864;21.410;2023-05-10T11:51:10;100199.00;;;14.99;59.86
80482;BME280;69797;43.864;21.410;2023-05-10T11:53:37;100206.69;;;14.97;60.21
80482;BME280;69797;43.864;21.410;2023-05-10T11:56:08;100194.22;;;14.95;59.93
80482;BME280;69797;43.864;21.410;2023-05-10T11:58:39;100160.94;;;14.68;60.06
80482;BME280;69797;43.864;21.410;2023-05-10T12:01:07;100167.72;;;14.60;60.58
80482;BME280;69797;43.864;21.410;2023-05-10T12:03:34;100192.56;;;14.77;60.13
80482;BME280;69797;43.864;21.410;2023-05-10T12:06:02;100162.31;;;14.65;60.39
80482;BME280;69797;43.864;21.410;2023-05-10T12:08:30;100181.03;;;14.80;60.10
80482;BME280;69797;43.864;21.410;2023-05-10T12:11:08;100181.78;;;14.92;60.21
80482;BME280;69797;43.864;21.410;2023-05-10T12:13:38;100155.44;;;14.84;60.21
80482;BME280;69797;43.864;21.410;2023-05-10T12:16:16;100200.66;;;14.83;60.51
80482;BME280;69797;43.864;21.410;2023-05-10T12:18:44;100164.97;;;14.77;60.76
80482;BME280;69797;43.864;21.410;2023-05-10T12:21:12;100174.09;;;14.77;60.64
80482;BME280;69797;43.864;21.410;2023-05-10T12:23:41;100179.53;;;14.72;60.64
80482;BME280;69797;43.864;21.410;2023-05-10T12:26:14;100160.78;;;14.74;60.83
80482;BME280;69797;43.864;21.410;2023-05-10T12:28:40;100164.56;;;14.85;61.05
80482;BME280;69797;43.864;21.410;2023-05-10T12:31:07;100162.41;;;14.87;60.51
80482;BME280;69797;43.864;21.410;2023-05-10T12:33:42;100155.00;;;14.93;60.27
80482;BME280;69797;43.864;21.410;2023-05-10T12:36:10;100161.63;;;15.08;60.29
80482;BME280;69797;43.864;21.410;2023-05-10T12:38:39;100174.47;;;15.20;60.32
80482;BME280;69797;43.864;21.410;2023-05-10T12:41:14;100152.75;;;15.06;60.69
80482;BME280;69797;43.864;21.410;2023-05-10T12:43:41;100201.91;;;15.09;60.53
80482;BME280;69797;43.864;21.410;2023-05-10T12:46:12;100149.44;;;14.87;61.46
80482;BME280;69797;43.864;21.410;2023-05-10T12:48:41;100170.16;;;14.90;61.70
80482;BME280;69797;43.864;21.410;2023-05-10T12:51:09;100165.31;;;14.97;61.64
80482;BME280;69797;43.864;21.410;2023-05-10T12:53:38;100178.78;;;14.94;61.88
80482;BME280;69797;43.864;21.410;2023-05-10T12:56:10;100141.75;;;14.73;61.90
80482;BME280;69797;43.864;21.410;2023-05-10T12:58:37;100152.19;;;14.71;62.54
80482;BME280;69797;43.864;21.410;2023-05-10T13:01:07;100129.22;;;14.65;62.76
80482;BME280;69797;43.864;21.410;2023-05-10T13:03:34;100166.97;;;14.64;62.88
80482;BME280;69797;43.864;21.410;2023-05-10T13:06:01;100134.50;;;14.38;63.99
80482;BME280;69797;43.864;21.410;2023-05-10T13:08:28;100135.56;;;14.20;64.27
80482;BME280;69797;43.864;21.410;2023-05-10T13:11:02;100150.16;;;14.21;64.43
80482;BME280;69797;43.864;21.410;2023-05-10T13:13:29;100129.69;;;14.16;64.86
80482;BME280;69797;43.864;21.410;2023-05-10T13:15:56;100136.78;;;14.12;64.74
80482;BME280;69797;43.864;21.410;2023-05-10T13:18:23;100137.88;;;14.11;64.76
80482;BME280;69797;43.864;21.410;2023-05-10T13:20:51;100123.16;;;14.06;65.01
80482;BME280;69797;43.864;21.410;2023-05-10T13:23:17;100114.41;;;14.09;64.95
80482;BME280;69797;43.864;21.410;2023-05-10T13:25:44;100134.47;;;14.21;64.79
80482;BME280;69797;43.864;21.410;2023-05-10T13:28:11;100090.53;;;14.14;64.70